Time;durP1;ratioP1;P1;durP2;ratioP2;P2;SDS_P1;SDS_P2;PMS_P1;PMS_P2;Temp;Humidity;BMP_temperature;BMP_pressure;BME280_temperature;BME280_humidity;BME280_pressure;Samples;Min_cycle;Max_cycle;Signal;HPM_P1;HPM_P2
2022/07/03 00:00:11;;;;;;;3.93;3.10;;;20.10;99.90;;;;;;5050069;28;20434;-35
2022/07/03 00:02:36;;;;;;;5.40;3.73;;;20.00;99.90;;;;;;5050363;28;20834;-35
2022/07/03 00:05:02;;;;;;;3.17;2.87;;;20.00;99.90;;;;;;5050587;28;20455;-35
2022/07/03 00:07:28;;;;;;;3.43;2.80;;;19.90;99.90;;;;;;5049682;28;20305;-35
2022/07/03 00:09:54;;;;;;;4.33;3.00;;;19.90;99.90;;;;;;5050264;28;20220;-35
2022/07/03 00:12:19;;;;;;;4.90;2.73;;;19.80;99.90;;;;;;5048868;28;20673;-35
2022/07/03 00:14:45;;;;;;;3.37;3.00;;;19.90;99.90;;;;;;5050165;28;20204;-35
2022/07/03 00:17:11;;;;;;;3.20;2.90;;;19.70;99.90;;;;;;5049509;28;20216;-35
2022/07/03 00:19:36;;;;;;;3.20;2.90;;;19.70;99.90;;;;;;5050456;28;20221;-35
2022/07/03 00:22:04;;;;;;;3.63;2.80;;;19.60;99.90;;;;;;5051861;28;20578;-35
2022/07/03 00:24:42;;;;;;;3.53;3.00;;;19.40;99.90;;;;;;5050308;28;20546;-35
2022/07/03 00:27:09;;;;;;;5.57;3.50;;;19.30;99.90;;;;;;5049219;28;20540;-35
2022/07/03 00:29:42;;;;;;;3.60;3.30;;;19.20;99.90;;;;;;5050207;28;20425;-35
2022/07/03 00:32:13;;;;;;;4.43;3.60;;;19.10;99.90;;;;;;5049796;28;20427;-35
2022/07/03 00:34:40;;;;;;;3.67;2.80;;;19.10;99.90;;;;;;5048975;28;20943;-35
2022/07/03 00:37:09;;;;;;;3.80;3.33;;;19.10;99.90;;;;;;5049111;28;21168;-35
2022/07/03 00:39:38;;;;;;;4.87;3.87;;;19.00;99.90;;;;;;5049645;28;20420;-36
2022/07/03 00:42:06;;;;;;;3.97;3.57;;;18.90;99.90;;;;;;5049593;28;20424;-35
2022/07/03 00:44:54;;;;;;;3.83;2.93;;;18.90;99.90;;;;;;5049453;28;20626;-35
2022/07/03 00:47:24;;;;;;;6.30;3.43;;;18.90;99.90;;;;;;5048343;28;20444;-35
2022/07/03 00:49:53;;;;;;;6.33;3.30;;;18.80;99.90;;;;;;5049375;28;20417;-35
2022/07/03 00:52:21;;;;;;;4.20;3.77;;;18.70;99.90;;;;;;5049140;28;20631;-35
2022/07/03 00:54:57;;;;;;;3.53;3.23;;;18.70;99.90;;;;;;5049511;28;20447;-35
2022/07/03 00:57:25;;;;;;;3.90;3.27;;;18.70;99.90;;;;;;5048657;28;20415;-35
2022/07/03 00:59:52;;;;;;;4.33;3.17;;;18.60;99.90;;;;;;5049120;28;20424;-35
2022/07/03 01:02:52;;;;;;;3.70;3.33;;;18.70;99.90;;;;;;5049276;28;20420;-35
2022/07/03 01:05:40;;;;;;;3.50;3.10;;;18.60;99.90;;;;;;5049425;28;20781;-35
2022/07/03 01:08:20;;;;;;;4.60;2.77;;;18.60;99.90;;;;;;5048608;28;20912;-35
2022/07/03 01:11:18;;;;;;;3.27;2.97;;;18.70;99.90;;;;;;5049014;28;20424;-35
2022/07/03 01:14:10;;;;;;;4.47;3.10;;;18.70;99.90;;;;;;5049229;28;20575;-35
2022/07/03 01:16:56;;;;;;;2.63;2.43;;;18.70;99.90;;;;;;5048311;28;20840;-35
2022/07/03 01:19:34;;;;;;;3.13;2.87;;;18.70;99.90;;;;;;5046195;28;21159;-35
2022/07/03 01:22:14;;;;;;;3.17;2.87;;;18.70;99.90;;;;;;5044700;28;20533;-35
2022/07/03 01:25:14;;;;;;;3.17;2.90;;;18.60;99.90;;;;;;5048847;28;20852;-35
2022/07/03 01:28:11;;;;;;;4.03;3.40;;;18.50;99.90;;;;;;5039931;28;20436;-35
2022/07/03 01:30:44;;;;;;;3.40;3.10;;;18.40;99.90;;;;;;5041615;28;20408;-35
2022/07/03 01:33:22;;;;;;;3.60;2.90;;;18.20;99.90;;;;;;5048223;28;20943;-36
2022/07/03 01:36:08;;;;;;;2.90;2.70;;;18.10;99.90;;;;;;5048656;28;20558;-35
2022/07/03 01:38:39;;;;;;;3.90;2.90;;;18.10;99.90;;;;;;5047661;28;20436;-35
2022/07/03 01:41:10;;;;;;;5.53;3.03;;;18.20;99.90;;;;;;5048885;28;20412;-35
2022/07/03 01:43:57;;;;;;;3.33;3.00;;;18.20;99.90;;;;;;5045503;28;20452;-35
2022/07/03 01:46:28;;;;;;;3.20;2.97;;;18.10;99.90;;;;;;5028294;28;20855;-35
2022/07/03 01:48:55;;;;;;;3.03;2.77;;;18.00;99.90;;;;;;5032025;28;20425;-35
2022/07/03 01:51:23;;;;;;;3.50;3.00;;;17.90;99.90;;;;;;5028822;28;20586;-35
2022/07/03 01:53:50;;;;;;;3.47;3.03;;;17.80;99.90;;;;;;5039024;28;20448;-35
2022/07/03 01:56:17;;;;;;;3.17;2.87;;;17.80;99.90;;;;;;5037279;28;20789;-35
2022/07/03 01:58:43;;;;;;;4.33;3.23;;;17.80;99.90;;;;;;5027584;28;20417;-35
2022/07/03 02:01:30;;;;;;;3.60;2.77;;;17.80;99.90;;;;;;5028162;28;20429;-35
2022/07/03 02:04:14;;;;;;;3.03;2.83;;;17.90;99.90;;;;;;5028336;28;20181;-35
2022/07/03 02:06:44;;;;;;;2.80;2.60;;;17.90;99.90;;;;;;5027692;28;20861;-35
2022/07/03 02:09:11;;;;;;;3.40;3.03;;;17.70;99.90;;;;;;5028428;28;20451;-35
2022/07/03 02:11:43;;;;;;;3.00;2.80;;;17.60;99.90;;;;;;5028131;28;20436;-35
2022/07/03 02:14:16;;;;;;;2.97;2.63;;;17.60;99.90;;;;;;5028147;28;20429;-35
2022/07/03 02:16:58;;;;;;;2.90;2.70;;;17.50;99.90;;;;;;5027872;28;20421;-35
2022/07/03 02:19:37;;;;;;;4.67;3.43;;;17.60;99.90;;;;;;5044310;28;20557;-35
2022/07/03 02:22:06;;;;;;;3.90;2.90;;;17.70;99.90;;;;;;5028871;28;20420;-35
2022/07/03 02:24:56;;;;;;;3.70;2.80;;;17.60;99.90;;;;;;5028147;28;21002;-35
2022/07/03 02:27:25;;;;;;;2.90;2.70;;;17.60;99.90;;;;;;5027472;28;20562;-35
2022/07/03 02:30:01;;;;;;;2.50;2.30;;;17.60;99.90;;;;;;5035050;28;20499;-35
2022/07/03 02:32:31;;;;;;;3.50;2.60;;;17.50;99.90;;;;;;5048125;28;20411;-35
2022/07/03 02:35:06;;;;;;;3.13;2.83;;;17.60;99.90;;;;;;5047201;28;20436;-35
2022/07/03 02:37:39;;;;;;;3.30;3.00;;;17.60;99.90;;;;;;5047387;28;20419;-35
2022/07/03 02:40:05;;;;;;;3.40;3.10;;;17.60;99.90;;;;;;5047953;28;20404;-35
2022/07/03 02:43:13;;;;;;;3.37;3.07;;;17.70;99.90;;;;;;5044659;28;20795;-35
2022/07/03 02:45:50;;;;;;;4.53;3.03;;;17.60;99.90;;;;;;5029959;28;20421;-35
2022/07/03 02:48:39;;;;;;;2.53;2.30;;;17.60;99.90;;;;;;5037082;28;20464;-35
2022/07/03 02:51:13;;;;;;;5.77;2.80;;;17.50;99.90;;;;;;5038243;28;20420;-35
2022/07/03 02:53:48;;;;;;;3.00;2.70;;;17.60;99.90;;;;;;5051594;28;20415;-35
2022/07/03 02:56:26;;;;;;;4.13;3.03;;;17.60;99.90;;;;;;5051699;28;20431;-35
2022/07/03 02:59:19;;;;;;;3.00;2.70;;;17.60;99.90;;;;;;5050895;28;20709;-35
2022/07/03 03:02:07;;;;;;;3.40;2.87;;;17.60;99.90;;;;;;5050734;28;20412;-35
2022/07/03 03:04:37;;;;;;;3.10;2.80;;;17.50;99.90;;;;;;5051423;28;20427;-35
2022/07/03 03:07:12;;;;;;;3.30;3.00;;;17.40;99.90;;;;;;5050618;28;20470;-35
2022/07/03 03:09:42;;;;;;;4.60;3.20;;;17.30;99.90;;;;;;5051794;28;20442;-35
2022/07/03 03:12:09;;;;;;;9.50;3.70;;;17.30;99.90;;;;;;5051356;28;20503;-35
2022/07/03 03:14:40;;;;;;;3.30;2.90;;;17.20;99.90;;;;;;5051412;28;20503;-35
2022/07/03 03:17:08;;;;;;;2.93;2.73;;;17.20;99.90;;;;;;5050601;28;20486;-35
2022/07/03 03:19:45;;;;;;;3.63;2.90;;;17.30;99.90;;;;;;5050973;28;20957;-34
2022/07/03 03:22:28;;;;;;;3.10;2.90;;;17.40;99.90;;;;;;5043492;28;20791;-35
2022/07/03 03:24:54;;;;;;;5.67;3.00;;;17.40;99.90;;;;;;5031180;28;20497;-35
2022/07/03 03:27:21;;;;;;;4.63;3.20;;;17.30;99.90;;;;;;5030385;28;20468;-35
2022/07/03 03:29:47;;;;;;;4.43;3.23;;;17.20;99.90;;;;;;5030945;28;20417;-34
2022/07/03 03:32:14;;;;;;;3.40;3.00;;;17.30;99.90;;;;;;5030917;28;20443;-35
2022/07/03 03:34:41;;;;;;;3.37;3.07;;;17.30;99.90;;;;;;5030022;28;20448;-35
2022/07/03 03:37:07;;;;;;;3.17;2.87;;;17.40;99.90;;;;;;5030547;28;20432;-35
2022/07/03 03:39:32;;;;;;;3.00;2.60;;;17.50;99.90;;;;;;5031134;28;20432;-35
2022/07/03 03:42:00;;;;;;;5.10;2.87;;;17.50;99.90;;;;;;5031003;28;20198;-35
2022/07/03 03:44:27;;;;;;;4.60;2.53;;;17.40;99.90;;;;;;5046625;28;20201;-35
2022/07/03 03:46:54;;;;;;;3.30;3.00;;;17.50;99.90;;;;;;5049933;28;20550;-35
2022/07/03 03:49:20;;;;;;;3.07;2.70;;;17.50;99.90;;;;;;5034213;28;20424;-35
2022/07/03 03:51:46;;;;;;;3.37;2.73;;;17.50;99.90;;;;;;5044178;28;20428;-35
2022/07/03 03:54:12;;;;;;;3.90;3.13;;;17.40;99.90;;;;;;5046078;28;20514;-35
2022/07/03 03:56:37;;;;;;;3.23;2.93;;;17.40;99.90;;;;;;5037641;28;20421;-35
2022/07/03 03:59:03;;;;;;;3.43;2.83;;;17.40;99.90;;;;;;5030459;28;20195;-35
2022/07/03 04:01:29;;;;;;;3.03;2.83;;;17.40;99.90;;;;;;5030210;28;20206;-35
2022/07/03 04:03:54;;;;;;;3.17;2.87;;;17.30;99.90;;;;;;5030140;28;20202;-35
2022/07/03 04:06:20;;;;;;;3.27;2.97;;;17.40;99.90;;;;;;5030350;28;20253;-35
2022/07/03 04:08:46;;;;;;;3.07;2.87;;;17.40;99.90;;;;;;5029559;28;20186;-35
2022/07/03 04:11:12;;;;;;;3.23;2.93;;;17.50;99.90;;;;;;5030373;28;20432;-35
2022/07/03 04:13:37;;;;;;;3.00;2.70;;;17.60;99.90;;;;;;5030130;28;20175;-35
2022/07/03 04:16:03;;;;;;;3.17;2.70;;;17.70;99.90;;;;;;5028981;28;20475;-35
2022/07/03 04:18:30;;;;;;;5.53;2.67;;;17.70;99.90;;;;;;5029092;28;20328;-35
2022/07/03 04:20:55;;;;;;;4.30;2.80;;;17.60;99.90;;;;;;5030830;28;20429;-35
2022/07/03 04:23:21;;;;;;;3.10;2.73;;;17.70;99.90;;;;;;5042408;28;20479;-35
2022/07/03 04:25:47;;;;;;;6.30;3.20;;;17.70;99.90;;;;;;5038940;28;20190;-35
2022/07/03 04:28:13;;;;;;;3.60;2.70;;;17.60;99.90;;;;;;5029332;28;20463;-35
2022/07/03 04:30:39;;;;;;;3.70;3.23;;;17.50;99.90;;;;;;5029990;28;20190;-35
2022/07/03 04:33:04;;;;;;;3.40;3.10;;;17.50;99.90;;;;;;5029622;28;20183;-35
2022/07/03 04:35:30;;;;;;;3.37;3.07;;;17.50;99.90;;;;;;5029067;28;20448;-35
2022/07/03 04:37:56;;;;;;;2.53;2.33;;;17.60;99.90;;;;;;5029051;28;20286;-35
2022/07/03 04:40:22;;;;;;;3.33;2.93;;;17.60;99.90;;;;;;5028508;28;20436;-35
2022/07/03 04:42:48;;;;;;;3.17;2.87;;;17.70;99.90;;;;;;5031609;28;20183;-35
2022/07/03 04:45:13;;;;;;;4.50;3.10;;;17.80;99.90;;;;;;5049495;28;20193;-35
2022/07/03 04:47:39;;;;;;;4.00;2.77;;;17.80;99.90;;;;;;5043353;28;20226;-35
2022/07/03 04:50:05;;;;;;;3.10;2.50;;;18.00;99.90;;;;;;5029608;28;20190;-35
2022/07/03 04:52:31;;;;;;;3.93;2.70;;;18.10;99.90;;;;;;5029369;28;20455;-35
2022/07/03 04:54:57;;;;;;;2.90;2.60;;;18.20;99.90;;;;;;5029388;28;20429;-35
2022/07/03 04:57:23;;;;;;;3.70;2.57;;;18.30;99.90;;;;;;5028611;28;20197;-35
2022/07/03 04:59:48;;;;;;;2.70;2.37;;;18.30;99.90;;;;;;5029531;28;20261;-35
2022/07/03 05:02:14;;;;;;;3.70;3.30;;;18.40;99.90;;;;;;5028931;28;20190;-35
2022/07/03 05:04:40;;;;;;;4.37;2.73;;;18.50;99.90;;;;;;5029323;28;20556;-35
2022/07/03 05:07:05;;;;;;;3.07;2.07;;;18.50;99.90;;;;;;5028227;28;20363;-35
2022/07/03 05:09:31;;;;;;;3.10;2.30;;;18.60;99.90;;;;;;5029407;28;20243;-35
2022/07/03 05:11:57;;;;;;;2.50;2.30;;;18.70;99.90;;;;;;5028482;28;20182;-35
2022/07/03 05:14:22;;;;;;;4.10;2.23;;;18.80;99.90;;;;;;5029083;28;20510;-35
2022/07/03 05:16:48;;;;;;;4.67;2.30;;;18.90;99.90;;;;;;5028175;28;20182;-36
2022/07/03 05:19:14;;;;;;;2.97;2.50;;;19.00;99.90;;;;;;5028881;28;20592;-35
2022/07/03 05:21:39;;;;;;;2.83;2.37;;;19.00;99.90;;;;;;5032168;28;20193;-35
2022/07/03 05:24:06;;;;;;;2.30;2.10;;;19.10;99.90;;;;;;5028867;28;20178;-35
2022/07/03 05:26:31;;;;;;;2.27;2.07;;;19.20;99.90;;;;;;5028510;28;20214;-35
2022/07/03 05:28:57;;;;;;;4.90;2.00;;;19.30;99.90;;;;;;5028654;28;20780;-35
2022/07/03 05:31:23;;;;;;;2.60;2.37;;;19.40;99.90;;;;;;5029023;28;20197;-35
2022/07/03 05:33:48;;;;;;;2.80;2.03;;;19.50;99.90;;;;;;5027500;28;20187;-35
2022/07/03 05:36:14;;;;;;;2.67;2.20;;;19.60;99.90;;;;;;5028720;28;20216;-35
2022/07/03 05:41:24;;;;;;;2.30;2.10;;;19.60;99.90;;;;;;5027644;28;20724;-35
2022/07/03 05:43:50;;;;;;;1.97;1.87;;;19.70;99.90;;;;;;5038939;28;20538;-35
2022/07/03 05:46:16;;;;;;;2.30;2.10;;;19.70;99.90;;;;;;5048631;28;20283;-35
2022/07/03 05:48:42;;;;;;;2.10;1.90;;;19.60;99.90;;;;;;5034041;28;20564;-35
2022/07/03 05:51:07;;;;;;;2.50;2.27;;;19.70;99.90;;;;;;5028731;28;21009;-35
2022/07/03 05:53:33;;;;;;;2.27;2.00;;;19.80;99.90;;;;;;5028566;28;20555;-35
2022/07/03 05:55:59;;;;;;;4.30;2.20;;;19.80;99.90;;;;;;5027127;28;20221;-36
2022/07/03 05:58:24;;;;;;;2.70;2.50;;;19.90;99.90;;;;;;5027917;28;20336;-35
2022/07/03 06:00:50;;;;;;;3.67;2.40;;;20.00;99.90;;;;;;5028017;28;20505;-35
2022/07/03 06:03:16;;;;;;;2.60;2.40;;;20.30;99.90;;;;;;5028602;28;20232;-35
2022/07/03 06:05:42;;;;;;;3.00;2.03;;;20.50;99.90;;;;;;5028254;28;20276;-35
2022/07/03 06:08:07;;;;;;;2.70;2.50;;;20.70;99.90;;;;;;5027495;28;20221;-35
2022/07/03 06:10:33;;;;;;;3.50;2.47;;;20.90;99.90;;;;;;5035116;28;20642;-35
2022/07/03 06:12:59;;;;;;;2.60;2.33;;;21.00;99.90;;;;;;5048321;28;20213;-35
2022/07/03 06:15:26;;;;;;;2.73;2.53;;;21.20;99.90;;;;;;5048142;28;20188;-35
2022/07/03 06:17:52;;;;;;;5.40;2.93;;;21.40;99.90;;;;;;5047405;28;20411;-35
2022/07/03 06:20:17;;;;;;;3.07;2.43;;;21.50;99.90;;;;;;5039245;28;20867;-35
2022/07/03 06:22:43;;;;;;;3.70;3.23;;;21.70;99.90;;;;;;5035064;28;20265;-35
2022/07/03 06:25:09;;;;;;;7.13;3.73;;;21.80;99.90;;;;;;5032218;28;20421;-35
2022/07/03 06:27:35;;;;;;;4.53;3.10;;;22.00;99.90;;;;;;5031318;28;20461;-36
2022/07/03 06:30:01;;;;;;;4.30;3.30;;;22.10;99.90;;;;;;5032350;28;20440;-35
2022/07/03 06:32:27;;;;;;;3.77;3.47;;;22.30;99.90;;;;;;5043463;28;20572;-35
2022/07/03 06:34:53;;;;;;;4.20;3.00;;;22.30;99.90;;;;;;5039257;28;20433;-35
2022/07/03 06:37:19;;;;;;;3.43;2.90;;;22.40;99.90;;;;;;5031452;28;20194;-35
2022/07/03 06:39:45;;;;;;;4.13;3.40;;;22.50;99.90;;;;;;5031954;28;20202;-35
2022/07/03 06:42:10;;;;;;;5.50;3.37;;;22.60;99.90;;;;;;5031749;28;20475;-35
2022/07/03 06:44:36;;;;;;;6.67;3.77;;;22.70;99.90;;;;;;5048998;28;20483;-35
2022/07/03 06:47:03;;;;;;;4.47;3.37;;;22.80;99.90;;;;;;5051107;28;20548;-35
2022/07/03 06:49:31;;;;;;;5.27;3.97;;;22.90;99.90;;;;;;5031732;28;20373;-35
2022/07/03 06:51:57;;;;;;;6.57;3.20;;;22.90;99.70;;;;;;5031755;28;20528;-35
2022/07/03 06:54:23;;;;;;;4.87;3.20;;;22.90;99.70;;;;;;5031576;28;20531;-35
2022/07/03 06:56:48;;;;;;;3.33;2.77;;;22.90;99.70;;;;;;5031069;28;20198;-36
2022/07/03 06:59:14;;;;;;;7.17;3.47;;;23.00;99.90;;;;;;5031654;28;20198;-35
2022/07/03 07:01:40;;;;;;;4.43;3.80;;;23.20;99.90;;;;;;5031532;28;20213;-35
2022/07/03 07:04:05;;;;;;;5.40;3.73;;;23.30;98.90;;;;;;5031512;28;20280;-35
2022/07/03 07:06:31;;;;;;;5.80;4.13;;;23.40;98.70;;;;;;5031052;28;20259;-35
2022/07/03 07:08:56;;;;;;;4.90;4.00;;;23.30;98.30;;;;;;5031361;28;20205;-36
2022/07/03 07:11:22;;;;;;;5.60;3.63;;;23.30;98.40;;;;;;5031207;28;20194;-35
2022/07/03 07:13:48;;;;;;;6.00;4.13;;;23.40;98.40;;;;;;5031642;28;20198;-36
2022/07/03 07:16:13;;;;;;;4.10;3.70;;;23.40;98.10;;;;;;5032460;28;20568;-35
2022/07/03 07:18:43;;;;;;;4.73;3.33;;;23.40;98.00;;;;;;5044068;28;20181;-35
2022/07/03 07:21:10;;;;;;;4.37;3.90;;;23.50;98.40;;;;;;5042462;28;20199;-36
2022/07/03 07:23:36;;;;;;;4.00;3.50;;;23.60;98.00;;;;;;5040917;28;20450;-35
2022/07/03 07:26:02;;;;;;;4.33;3.73;;;23.70;97.90;;;;;;5038286;28;20881;-36
2022/07/03 07:28:28;;;;;;;6.50;3.63;;;23.80;97.40;;;;;;5030251;28;21003;-35
2022/07/03 07:30:56;;;;;;;5.67;3.40;;;23.90;97.50;;;;;;5031402;28;20456;-35
2022/07/03 07:33:22;;;;;;;4.67;3.00;;;24.00;97.80;;;;;;5029524;28;20448;-35
2022/07/03 07:35:48;;;;;;;5.90;4.07;;;24.00;97.80;;;;;;5030408;28;20857;-35
2022/07/03 07:38:14;;;;;;;5.53;3.60;;;24.00;97.00;;;;;;5029673;28;20475;-35
2022/07/03 07:40:40;;;;;;;6.93;4.10;;;24.00;97.00;;;;;;5038280;28;20425;-36
2022/07/03 07:43:06;;;;;;;5.90;4.03;;;23.80;97.00;;;;;;5046722;28;20185;-35
2022/07/03 07:45:31;;;;;;;5.27;4.20;;;23.80;97.00;;;;;;5044595;28;20727;-36
2022/07/03 07:47:57;;;;;;;8.37;4.07;;;23.80;97.00;;;;;;5045020;28;20518;-35
2022/07/03 07:50:23;;;;;;;5.33;3.80;;;23.90;97.10;;;;;;5048356;28;20585;-36
2022/07/03 07:52:48;;;;;;;3.73;3.43;;;23.90;97.40;;;;;;5030976;28;20281;-35
2022/07/03 07:55:14;;;;;;;5.80;3.80;;;23.90;97.40;;;;;;5031910;28;20187;-35
2022/07/03 07:57:41;;;;;;;6.80;4.03;;;23.90;97.40;;;;;;5042242;28;20194;-35
2022/07/03 08:00:12;;;;;;;4.30;3.30;;;24.00;97.90;;;;;;5045433;28;20533;-35
2022/07/03 08:05:38;;;;;;;6.73;4.30;;;24.00;97.20;;;;;;5031924;28;20426;-35
2022/07/03 08:08:07;;;;;;;4.80;3.83;;;24.00;97.50;;;;;;5031318;28;20614;-35
2022/07/03 08:10:47;;;;;;;4.83;4.43;;;23.90;97.60;;;;;;5031933;28;20460;-35
2022/07/03 08:13:15;;;;;;;4.57;3.97;;;23.70;97.40;;;;;;5031877;28;20904;-35
2022/07/03 08:15:42;;;;;;;3.40;3.10;;;23.60;97.80;;;;;;5031981;28;20433;-35
2022/07/03 08:18:08;;;;;;;4.67;3.70;;;23.60;98.10;;;;;;5030860;28;20425;-35
2022/07/03 08:20:35;;;;;;;6.53;4.13;;;23.50;97.90;;;;;;5031924;28;20486;-36
2022/07/03 08:23:01;;;;;;;4.70;3.60;;;23.50;98.30;;;;;;5037206;28;20451;-36
2022/07/03 08:25:27;;;;;;;8.40;4.00;;;23.50;98.50;;;;;;5044932;28;20413;-36
2022/07/03 08:27:53;;;;;;;4.73;4.10;;;23.60;98.70;;;;;;5032280;28;20472;-35
2022/07/03 08:30:19;;;;;;;4.90;3.40;;;23.70;98.50;;;;;;5041780;28;20231;-35
2022/07/03 08:32:50;;;;;;;4.60;4.03;;;23.80;98.20;;;;;;5042141;28;20197;-36
2022/07/03 08:35:17;;;;;;;5.97;4.03;;;23.80;97.60;;;;;;5039816;28;20425;-35
2022/07/03 08:37:45;;;;;;;3.73;3.07;;;23.90;97.80;;;;;;5030878;28;20530;-35
2022/07/03 08:40:13;;;;;;;5.00;2.90;;;24.00;98.60;;;;;;5031448;28;20436;-35
2022/07/03 08:42:48;;;;;;;9.93;4.43;;;24.00;98.00;;;;;;5030646;28;20441;-35
2022/07/03 08:45:16;;;;;;;5.23;3.73;;;24.10;97.70;;;;;;5051104;28;20439;-35
2022/07/03 08:47:43;;;;;;;3.40;3.10;;;24.10;97.90;;;;;;5044004;28;20815;-35
2022/07/03 08:50:12;;;;;;;4.30;3.47;;;24.20;97.80;;;;;;5031349;28;20495;-35
2022/07/03 08:52:39;;;;;;;3.93;3.53;;;24.40;97.90;;;;;;5045481;28;20524;-35
2022/07/03 08:55:07;;;;;;;3.60;3.30;;;24.40;97.70;;;;;;5031121;28;20442;-35
2022/07/03 08:57:35;;;;;;;6.70;4.50;;;24.50;97.60;;;;;;5030381;28;20928;-36
2022/07/03 09:00:08;;;;;;;4.20;3.07;;;24.60;97.50;;;;;;5029622;28;20567;-36
2022/07/03 09:02:34;;;;;;;4.43;4.00;;;24.70;97.70;;;;;;5038555;28;20416;-35
2022/07/03 09:05:02;;;;;;;4.67;3.90;;;24.80;97.00;;;;;;5049454;28;20463;-35
2022/07/03 09:07:31;;;;;;;4.80;3.53;;;24.90;97.20;;;;;;5050021;28;20525;-35
2022/07/03 09:09:57;;;;;;;4.17;3.77;;;24.90;97.20;;;;;;5050650;28;20469;-35
2022/07/03 09:12:23;;;;;;;5.40;3.60;;;25.00;96.60;;;;;;5050530;28;20511;-35
2022/07/03 09:14:49;;;;;;;3.80;3.00;;;25.00;96.00;;;;;;5037392;28;20623;-35
2022/07/03 09:17:15;;;;;;;3.50;3.20;;;25.10;96.80;;;;;;5038015;28;20953;-35
2022/07/03 09:19:48;;;;;;;3.80;3.50;;;25.20;96.90;;;;;;5037364;28;20453;-35
2022/07/03 09:22:25;;;;;;;3.50;3.20;;;25.30;96.60;;;;;;5041858;28;20429;-35
2022/07/03 09:25:05;;;;;;;4.80;3.60;;;25.40;96.40;;;;;;5039082;28;20432;-35
2022/07/03 09:27:31;;;;;;;3.80;3.43;;;25.50;96.00;;;;;;5036191;28;20551;-35
2022/07/03 09:30:08;;;;;;;8.00;3.73;;;25.60;95.80;;;;;;5041199;28;20841;-35
2022/07/03 09:32:36;;;;;;;3.93;3.60;;;25.50;95.50;;;;;;5030158;28;20441;-35
2022/07/03 09:35:23;;;;;;;4.10;3.70;;;25.50;95.00;;;;;;5040614;28;20437;-36
2022/07/03 09:37:49;;;;;;;6.67;4.00;;;25.60;95.00;;;;;;5039388;28;20487;-35
2022/07/03 09:40:16;;;;;;;3.83;3.23;;;25.50;94.40;;;;;;5037355;28;20432;-35
2022/07/03 09:43:06;;;;;;;4.63;3.10;;;25.60;95.00;;;;;;5030605;28;20197;-35
2022/07/03 09:45:56;;;;;;;5.23;3.90;;;25.70;95.40;;;;;;5049437;28;20424;-35
2022/07/03 09:48:33;;;;;;;4.50;3.40;;;25.80;94.10;;;;;;5036108;28;20465;-35
2022/07/03 09:51:11;;;;;;;3.40;3.10;;;25.90;95.30;;;;;;5029737;28;20433;-36
2022/07/03 09:53:57;;;;;;;3.03;2.83;;;25.90;94.80;;;;;;5030084;28;21002;-35
2022/07/03 09:56:35;;;;;;;5.70;3.40;;;26.00;95.20;;;;;;5030145;28;20472;-35
2022/07/03 09:59:00;;;;;;;3.80;3.40;;;26.10;94.70;;;;;;5029639;28;20842;-35
2022/07/03 10:01:26;;;;;;;4.60;4.17;;;26.20;94.00;;;;;;5036247;28;20420;-35
2022/07/03 10:03:53;;;;;;;4.67;3.43;;;26.10;92.50;;;;;;5047094;28;20309;-35
2022/07/03 10:06:19;;;;;;;7.33;3.40;;;26.10;94.00;;;;;;5047096;28;20276;-35
2022/07/03 10:08:47;;;;;;;5.30;3.20;;;26.10;93.30;;;;;;5030189;28;20464;-36
2022/07/03 10:11:13;;;;;;;3.00;2.80;;;26.20;94.00;;;;;;5029989;28;20508;-35
2022/07/03 10:13:40;;;;;;;3.20;2.20;;;26.20;93.80;;;;;;5029914;28;20421;-36
2022/07/03 10:16:06;;;;;;;5.17;2.90;;;26.30;93.70;;;;;;5030014;28;20937;-35
2022/07/03 10:18:37;;;;;;;3.43;3.13;;;26.30;92.50;;;;;;5029146;28;20500;-35
2022/07/03 10:21:06;;;;;;;4.63;2.97;;;26.30;93.40;;;;;;5032242;28;20429;-36
2022/07/03 10:23:31;;;;;;;3.90;2.80;;;26.40;93.20;;;;;;5029875;28;20483;-35
2022/07/03 10:25:58;;;;;;;3.53;2.97;;;26.40;92.70;;;;;;5029715;28;20429;-35
2022/07/03 10:28:25;;;;;;;2.60;2.37;;;26.30;92.00;;;;;;5029169;28;20301;-36
2022/07/03 10:30:50;;;;;;;2.77;2.57;;;26.30;92.60;;;;;;5029764;28;20475;-36
2022/07/03 10:33:17;;;;;;;2.63;2.43;;;26.40;92.60;;;;;;5028506;28;20425;-36
2022/07/03 10:35:50;;;;;;;2.40;2.20;;;26.50;93.60;;;;;;5029275;28;20542;-35
2022/07/03 10:38:42;;;;;;;5.00;3.07;;;26.60;92.00;;;;;;5029076;28;20464;-35
2022/07/03 10:47:05;;;;;;;3.23;2.80;;;26.90;92.00;;;;;;5048174;28;20472;-36
2022/07/03 10:49:31;;;;;;;3.83;2.63;;;26.90;92.60;;;;;;5029617;28;20452;-35
2022/07/03 10:52:02;;;;;;;2.67;2.40;;;26.90;91.50;;;;;;5029493;28;20217;-35
2022/07/03 10:54:29;;;;;;;3.87;2.60;;;26.90;92.00;;;;;;5029454;28;20183;-35
2022/07/03 10:56:58;;;;;;;2.30;2.10;;;26.80;91.50;;;;;;5028810;28;20429;-36
2022/07/03 10:59:47;;;;;;;2.87;2.10;;;26.90;93.00;;;;;;5029710;28;20464;-35
2022/07/03 11:02:28;;;;;;;2.87;2.67;;;27.00;92.50;;;;;;5029231;28;20479;-35
2022/07/03 11:04:57;;;;;;;2.73;2.37;;;26.80;90.00;;;;;;5029379;28;20486;-35
2022/07/03 11:07:26;;;;;;;2.40;1.77;;;26.80;92.20;;;;;;5014627;28;20480;-35
2022/07/03 11:10:13;;;;;;;3.10;1.93;;;27.00;92.60;;;;;;5030305;28;20490;-35
2022/07/03 11:12:57;;;;;;;1.80;1.70;;;27.20;91.80;;;;;;5033176;28;20437;-36
2022/07/03 11:15:27;;;;;;;7.10;2.70;;;27.20;90.50;;;;;;5032912;28;20425;-36
2022/07/03 11:18:07;;;;;;;3.47;2.10;;;27.10;89.70;;;;;;5032425;28;20424;-36
2022/07/03 11:20:46;;;;;;;2.60;2.40;;;26.90;90.30;;;;;;5041568;28;20438;-36
2022/07/03 11:23:30;;;;;;;5.27;2.87;;;26.70;90.80;;;;;;5038102;28;20433;-36
2022/07/03 11:26:00;;;;;;;3.83;2.27;;;26.60;91.50;;;;;;5032954;28;20471;-36
2022/07/03 11:28:32;;;;;;;2.90;2.17;;;26.50;91.70;;;;;;5038698;28;20471;-35
2022/07/03 11:33:45;;;;;;;2.40;2.20;;;26.50;92.60;;;;;;5050989;28;20434;-35
2022/07/03 11:36:17;;;;;;;2.83;2.40;;;26.70;93.20;;;;;;5052083;28;20961;-36
2022/07/03 11:38:44;;;;;;;2.73;1.87;;;26.80;92.80;;;;;;5051911;28;20467;-37
2022/07/03 11:41:15;;;;;;;3.40;2.27;;;26.80;91.60;;;;;;5052249;28;20436;-36
2022/07/03 11:43:49;;;;;;;2.70;2.50;;;26.90;91.20;;;;;;5047886;28;20838;-35
2022/07/03 11:46:26;;;;;;;4.27;2.03;;;26.90;91.20;;;;;;5052295;28;20430;-36
2022/07/03 11:49:20;;;;;;;6.20;2.20;;;26.80;91.70;;;;;;5036876;28;20870;-36
2022/07/03 11:52:00;;;;;;;5.53;2.23;;;26.90;91.90;;;;;;5032405;28;20798;-35
2022/07/03 11:54:29;;;;;;;2.67;1.97;;;26.80;91.10;;;;;;5040021;28;20411;-35
2022/07/03 11:56:55;;;;;;;2.60;1.70;;;26.70;91.10;;;;;;5051200;28;20441;-35
2022/07/03 11:59:21;;;;;;;3.40;2.30;;;26.60;90.50;;;;;;5052290;28;20519;-35
2022/07/03 12:01:47;;;;;;;4.87;2.33;;;26.40;90.50;;;;;;5052022;28;20194;-35
2022/07/03 12:04:23;;;;;;;2.00;1.80;;;26.40;90.80;;;;;;5052119;28;20197;-36
2022/07/03 12:06:56;;;;;;;3.97;2.10;;;26.40;90.30;;;;;;5049705;28;20482;-35
2022/07/03 12:09:28;;;;;;;2.00;1.80;;;26.50;91.20;;;;;;5051801;28;20424;-36
2022/07/03 12:11:57;;;;;;;2.40;2.20;;;26.60;90.00;;;;;;5051841;28;20443;-35
2022/07/03 12:14:41;;;;;;;2.40;2.10;;;26.70;90.60;;;;;;5051932;28;20473;-35
2022/07/03 12:17:15;;;;;;;3.07;1.93;;;26.90;92.40;;;;;;5051167;28;20502;-35
2022/07/03 12:20:00;;;;;;;2.20;2.00;;;27.10;92.80;;;;;;5051506;28;20477;-35
2022/07/03 12:22:39;;;;;;;2.27;2.07;;;27.10;89.60;;;;;;5042840;28;20463;-36
2022/07/03 12:25:09;;;;;;;1.97;1.77;;;27.00;90.00;;;;;;5031811;28;20475;-36
2022/07/03 12:27:41;;;;;;;2.70;1.80;;;27.10;90.40;;;;;;5031001;28;20465;-35
2022/07/03 12:30:08;;;;;;;2.70;1.83;;;27.10;89.10;;;;;;5039295;28;20423;-35
2022/07/03 12:32:35;;;;;;;2.77;1.97;;;27.30;88.90;;;;;;5051606;28;20416;-36
2022/07/03 12:35:03;;;;;;;2.60;2.33;;;27.30;88.50;;;;;;5050290;28;20416;-35
2022/07/03 12:37:44;;;;;;;2.40;2.20;;;27.30;88.10;;;;;;5050690;28;20439;-36
2022/07/03 12:40:13;;;;;;;4.33;2.10;;;27.30;90.40;;;;;;5051777;28;20460;-36
2022/07/03 12:42:53;;;;;;;3.30;2.03;;;27.30;89.30;;;;;;5047832;28;20428;-35
2022/07/03 12:45:24;;;;;;;2.03;1.93;;;27.40;90.00;;;;;;5051260;28;20914;-35
2022/07/03 12:48:00;;;;;;;3.93;1.80;;;27.40;85.80;;;;;;5044046;28;20461;-35
2022/07/03 12:50:26;;;;;;;2.63;1.77;;;27.30;81.90;;;;;;5029816;28;20486;-35
2022/07/03 12:52:54;;;;;;;3.77;1.60;;;27.30;82.70;;;;;;5031231;28;20564;-36
2022/07/03 12:55:28;;;;;;;1.50;1.40;;;27.20;84.90;;;;;;5030940;28;20781;-35
2022/07/03 13:01:36;;;;;;;2.53;2.17;;;27.10;85.40;;;;;;5058418;28;20439;-36
2022/07/03 13:04:02;;;;;;;2.33;2.13;;;27.30;85.40;;;;;;5034288;28;20487;-35
2022/07/03 13:06:28;;;;;;;2.13;1.90;;;27.40;84.80;;;;;;5033227;28;20453;-36
2022/07/03 13:09:05;;;;;;;3.63;2.27;;;27.50;84.10;;;;;;5043429;28;21011;-35
2022/07/03 13:11:39;;;;;;;3.90;2.20;;;27.60;85.80;;;;;;5033231;28;20528;-35
2022/07/03 13:14:16;;;;;;;1.83;1.73;;;27.50;87.00;;;;;;5045969;28;20434;-35
2022/07/03 13:16:48;;;;;;;5.40;2.30;;;27.50;86.20;;;;;;5032682;28;20436;-35
2022/07/03 13:19:18;;;;;;;3.30;2.17;;;27.60;86.50;;;;;;5039152;28;20507;-35
2022/07/03 13:21:45;;;;;;;2.23;2.03;;;27.60;83.10;;;;;;5032913;28;20433;-35